createdAt,value
2018-02-07T00:01:57.470Z,-0.20
2018-02-07T00:04:25.847Z,-0.10
2018-02-07T00:06:54.274Z,-0.20
2018-02-07T00:09:21.862Z,-0.20
2018-02-07T00:11:49.912Z,-0.20
2018-02-07T00:14:17.504Z,-0.20
2018-02-07T00:16:45.866Z,-0.20
2018-02-07T00:19:13.490Z,-0.20
2018-02-07T00:21:41.190Z,-0.20
2018-02-07T00:24:08.908Z,-0.20
2018-02-07T00:26:36.504Z,-0.20
2018-02-07T00:29:06.277Z,-0.30
2018-02-07T00:31:34.056Z,-0.20
2018-02-07T00:34:01.719Z,-0.20
2018-02-07T00:36:30.289Z,-0.20
2018-02-07T00:38:59.190Z,-0.20
2018-02-07T00:41:26.941Z,-0.20
2018-02-07T00:43:54.618Z,-0.30
2018-02-07T00:46:22.259Z,-0.30
2018-02-07T00:48:49.913Z,-0.30
2018-02-07T00:51:17.757Z,-0.30
2018-02-07T00:53:45.417Z,-0.30
2018-02-07T00:56:13.822Z,-0.20
2018-02-07T00:58:41.490Z,-0.20
2018-02-07T01:01:09.113Z,-0.20
2018-02-07T01:03:37.468Z,-0.40
2018-02-07T01:06:05.086Z,-0.40
2018-02-07T01:08:32.681Z,-0.40
2018-02-07T01:11:00.298Z,-0.50
2018-02-07T01:13:27.897Z,-0.60
2018-02-07T01:15:55.520Z,-0.60
2018-02-07T01:18:23.113Z,-0.60
2018-02-07T01:20:50.997Z,-0.60
2018-02-07T01:23:18.603Z,-0.50
2018-02-07T01:25:46.203Z,-0.40
2018-02-07T01:28:13.836Z,-0.40
2018-02-07T01:30:41.600Z,-0.40
2018-02-07T01:33:09.330Z,-0.40
2018-02-07T01:35:37.687Z,-0.40
2018-02-07T01:38:05.335Z,-0.50
2018-02-07T01:40:32.932Z,-0.40
2018-02-07T01:43:01.320Z,-0.40
2018-02-07T01:45:28.908Z,-0.50
2018-02-07T01:47:56.548Z,-0.40
2018-02-07T01:50:24.171Z,-0.40
2018-02-07T01:52:52.567Z,-0.40
2018-02-07T01:55:20.158Z,-0.40
2018-02-07T01:57:47.837Z,-0.50
2018-02-07T02:00:15.459Z,-0.50
2018-02-07T02:02:43.853Z,-0.50
2018-02-07T02:05:11.463Z,-0.50
2018-02-07T02:07:39.084Z,-0.50
2018-02-07T02:10:06.675Z,-0.40
2018-02-07T02:12:34.319Z,-0.40
2018-02-07T02:15:01.901Z,-0.40
2018-02-07T02:17:29.491Z,-0.40
2018-02-07T02:19:57.879Z,-0.30
2018-02-07T02:22:26.253Z,-0.30
2018-02-07T02:24:54.693Z,-0.30
2018-02-07T02:27:22.292Z,-0.30
2018-02-07T02:29:50.677Z,-0.20
2018-02-07T02:32:18.280Z,-0.30
2018-02-07T02:34:45.911Z,-0.30
2018-02-07T02:37:13.504Z,-0.20
2018-02-07T02:39:41.246Z,-0.30
2018-02-07T02:42:08.858Z,-0.30
2018-02-07T02:44:36.495Z,-0.30
2018-02-07T02:47:04.109Z,-0.30
2018-02-07T02:49:31.714Z,-0.30
2018-02-07T02:51:59.366Z,-0.30
2018-02-07T02:54:27.247Z,-0.30
2018-02-07T02:56:54.875Z,-0.30
2018-02-07T02:59:22.531Z,-0.40
2018-02-07T03:01:50.146Z,-0.40
2018-02-07T03:04:17.741Z,-0.40
2018-02-07T03:06:46.339Z,-0.30
2018-02-07T03:09:13.931Z,-0.30
2018-02-07T03:11:41.540Z,-0.30
2018-02-07T03:14:09.124Z,-0.30
2018-02-07T03:16:38.005Z,-0.30
2018-02-07T03:19:06.540Z,-0.30
2018-02-07T03:21:34.187Z,-0.30
2018-02-07T03:24:01.848Z,-0.30
2018-02-07T03:26:29.469Z,-0.30
2018-02-07T03:28:57.594Z,-0.30
2018-02-07T03:31:25.198Z,-0.30
2018-02-07T03:33:52.817Z,-0.40
2018-02-07T03:36:20.445Z,-0.30
2018-02-07T03:38:48.085Z,-0.30
2018-02-07T03:41:15.708Z,-0.30
2018-02-07T03:43:44.065Z,-0.30
2018-02-07T03:46:11.659Z,-0.40
2018-02-07T03:48:40.152Z,-0.30
2018-02-07T03:51:07.764Z,-0.40
2018-02-07T03:53:35.389Z,-0.40
2018-02-07T03:56:03.015Z,-0.40
2018-02-07T03:58:32.149Z,-0.40
2018-02-07T04:00:59.771Z,-0.50
2018-02-07T04:03:28.151Z,-0.50
2018-02-07T04:05:56.507Z,-0.50
2018-02-07T04:08:24.118Z,-0.60
2018-02-07T04:10:51.763Z,-0.50
2018-02-07T04:13:20.146Z,-0.70
2018-02-07T04:15:47.779Z,-0.70
2018-02-07T04:18:15.416Z,-0.60
2018-02-07T04:20:43.037Z,-0.60
2018-02-07T04:23:10.629Z,-0.70
2018-02-07T04:25:38.262Z,-0.70
2018-02-07T04:28:05.853Z,-0.70
2018-02-07T04:30:33.454Z,-0.80
2018-02-07T04:33:01.880Z,-0.70
2018-02-07T04:35:30.697Z,-0.80
2018-02-07T04:37:59.922Z,-0.80
2018-02-07T04:40:28.297Z,-0.80
2018-02-07T04:42:56.664Z,-0.90
2018-02-07T04:45:25.410Z,-0.90
2018-02-07T04:47:53.034Z,-0.90
2018-02-07T04:50:21.130Z,-0.90
2018-02-07T04:52:49.008Z,-0.90
2018-02-07T04:55:16.607Z,-0.90
2018-02-07T04:57:45.015Z,-0.90
2018-02-07T05:00:12.881Z,-0.90
2018-02-07T05:02:40.492Z,-0.90
2018-02-07T05:05:08.187Z,-0.90
2018-02-07T05:07:36.552Z,-0.90
2018-02-07T05:10:04.921Z,-0.90
2018-02-07T05:12:32.558Z,-0.90
2018-02-07T05:15:00.232Z,-0.90
2018-02-07T05:17:27.858Z,-0.90
2018-02-07T05:19:55.486Z,-1.00
2018-02-07T05:22:23.912Z,-1.00
2018-02-07T05:24:52.557Z,-1.00
2018-02-07T05:27:20.270Z,-1.00
2018-02-07T05:29:47.969Z,-1.00
2018-02-07T05:32:15.572Z,-1.00
2018-02-07T05:34:43.193Z,-1.00
2018-02-07T05:37:11.593Z,-1.00
2018-02-07T05:39:39.305Z,-1.10
2018-02-07T05:42:06.972Z,-1.00
2018-02-07T05:44:34.656Z,-1.10
2018-02-07T05:47:03.138Z,-1.10
2018-02-07T05:49:31.869Z,-1.10
2018-02-07T05:51:59.456Z,-1.10
2018-02-07T05:54:27.044Z,-1.10
2018-02-07T05:56:55.420Z,-1.20
2018-02-07T05:59:23.775Z,-1.20
2018-02-07T06:01:51.412Z,-1.20
2018-02-07T06:04:19.031Z,-1.20
2018-02-07T06:06:47.450Z,-1.20
2018-02-07T06:09:15.062Z,-1.20
2018-02-07T06:11:43.555Z,-1.20
2018-02-07T06:14:11.204Z,-1.20
2018-02-07T06:16:39.588Z,-1.20
2018-02-07T06:19:07.975Z,-1.20
2018-02-07T06:21:35.590Z,-1.20
2018-02-07T06:24:03.248Z,-1.20
2018-02-07T06:26:30.870Z,-1.20
2018-02-07T06:28:58.488Z,-1.30
2018-02-07T06:31:27.288Z,-1.40
2018-02-07T06:33:55.640Z,-1.30
2018-02-07T06:36:23.236Z,-1.40
2018-02-07T06:38:51.612Z,-1.30
2018-02-07T06:41:19.277Z,-1.30
2018-02-07T06:43:46.917Z,-1.30
2018-02-07T06:46:14.541Z,-1.30
2018-02-07T06:48:42.151Z,-1.30
2018-02-07T06:51:10.504Z,-1.30
2018-02-07T06:53:38.217Z,-1.30
2018-02-07T06:56:05.808Z,-1.30
2018-02-07T06:58:34.251Z,-1.30
2018-02-07T07:01:01.860Z,-1.30
2018-02-07T07:03:29.510Z,-1.30
2018-02-07T07:05:57.133Z,-1.30
2018-02-07T07:08:24.940Z,-1.30
2018-02-07T07:10:53.333Z,-1.30
2018-02-07T07:13:20.981Z,-1.30
2018-02-07T07:15:48.619Z,-1.30
2018-02-07T07:18:16.226Z,-1.30
2018-02-07T07:20:43.989Z,-1.30
2018-02-07T07:23:12.346Z,-1.30
2018-02-07T07:25:39.957Z,-1.30
2018-02-07T07:28:07.598Z,-1.20
2018-02-07T07:30:36.007Z,-1.30
2018-02-07T07:33:03.617Z,-1.30
2018-02-07T07:35:31.248Z,-1.30
2018-02-07T07:37:58.906Z,-1.20
2018-02-07T07:40:27.004Z,-1.30
2018-02-07T07:42:54.764Z,-1.20
2018-02-07T07:45:23.276Z,-1.20
2018-02-07T07:47:52.333Z,-1.20
2018-02-07T07:50:19.949Z,-1.20
2018-02-07T07:52:47.569Z,-1.20
2018-02-07T07:55:15.209Z,-1.20
2018-02-07T07:57:42.882Z,-1.20
2018-02-07T08:00:10.492Z,-1.20
2018-02-07T08:02:38.108Z,-1.20
2018-02-07T08:05:05.769Z,-1.20
2018-02-07T08:07:33.380Z,-1.20
2018-02-07T08:10:00.979Z,-1.10
2018-02-07T08:12:28.717Z,-1.10
2018-02-07T08:14:57.648Z,-1.00
2018-02-07T08:17:25.338Z,-1.00
2018-02-07T08:19:53.027Z,-1.00
2018-02-07T08:22:20.739Z,-1.10
2018-02-07T08:24:48.393Z,-1.00
2018-02-07T08:27:16.040Z,-0.90
2018-02-07T08:29:43.656Z,-0.90
2018-02-07T08:32:11.255Z,-0.70
2018-02-07T08:34:38.910Z,-0.70
2018-02-07T08:37:06.545Z,-0.70
2018-02-07T08:39:34.176Z,-0.60
2018-02-07T08:42:02.533Z,-0.50
2018-02-07T08:44:30.204Z,-0.60
2018-02-07T08:46:57.940Z,-0.50
2018-02-07T08:49:25.584Z,-0.40
2018-02-07T08:51:53.235Z,-0.40
2018-02-07T08:54:20.884Z,-0.40
2018-02-07T08:56:48.485Z,-0.40
2018-02-07T08:59:16.904Z,-0.40
2018-02-07T09:01:45.320Z,-0.30
2018-02-07T09:04:13.035Z,-0.30
2018-02-07T09:06:40.723Z,-0.30
2018-02-07T09:09:08.361Z,-0.20
2018-02-07T09:11:36.786Z,-0.20
2018-02-07T09:14:04.479Z,-0.20
2018-02-07T09:16:32.115Z,-0.10
2018-02-07T09:18:59.721Z,-0.10
2018-02-07T09:21:27.477Z,0.00
2018-02-07T09:23:55.883Z,0.00
2018-02-07T09:26:24.335Z,-0.10
2018-02-07T09:28:52.197Z,-0.10
2018-02-07T09:31:20.297Z,0.00
2018-02-07T09:33:49.069Z,-0.10
2018-02-07T09:36:17.556Z,-0.10
2018-02-07T09:38:45.557Z,0.00
2018-02-07T09:41:14.464Z,0.00
2018-02-07T09:43:42.774Z,0.10
2018-02-07T09:46:10.499Z,0.10
2018-02-07T09:48:38.145Z,0.20
2018-02-07T09:51:05.916Z,0.30
2018-02-07T09:53:33.568Z,0.20
2018-02-07T09:56:01.293Z,0.30
2018-02-07T09:58:28.935Z,0.40
2018-02-07T10:00:56.560Z,0.40
2018-02-07T10:03:24.521Z,0.40
2018-02-07T10:05:52.129Z,0.50
2018-02-07T10:08:19.787Z,0.50
2018-02-07T10:10:47.458Z,0.50
2018-02-07T10:13:15.183Z,0.60
2018-02-07T10:15:42.790Z,0.60
2018-02-07T10:18:10.485Z,0.70
2018-02-07T10:20:38.090Z,0.70
2018-02-07T10:23:05.724Z,0.70
2018-02-07T10:25:33.356Z,0.70
2018-02-07T10:28:01.725Z,0.80
2018-02-07T10:30:30.177Z,0.80
2018-02-07T10:32:57.791Z,0.80
2018-02-07T10:35:25.442Z,0.70
2018-02-07T10:37:53.053Z,0.70
2018-02-07T10:40:20.674Z,0.80
2018-02-07T10:42:48.298Z,0.80
2018-02-07T10:45:16.034Z,0.80
2018-02-07T10:47:43.622Z,0.80
2018-02-07T10:50:11.246Z,0.70
2018-02-07T10:52:38.866Z,0.80
2018-02-07T10:55:06.541Z,0.80
2018-02-07T10:57:34.159Z,0.90
2018-02-07T11:00:01.785Z,0.90
2018-02-07T11:02:29.427Z,0.90
2018-02-07T11:04:57.078Z,0.90
2018-02-07T11:07:24.730Z,0.90
2018-02-07T11:09:52.367Z,0.90
2018-02-07T11:12:19.972Z,1.00
2018-02-07T11:14:47.609Z,1.00
2018-02-07T11:17:15.980Z,1.00
2018-02-07T11:19:44.718Z,1.00
2018-02-07T11:22:12.328Z,1.00
2018-02-07T11:24:40.742Z,0.80
2018-02-07T11:27:08.380Z,0.80
2018-02-07T11:29:36.780Z,0.50
2018-02-07T11:32:04.446Z,0.50
2018-02-07T11:34:32.042Z,0.60
2018-02-07T11:36:59.672Z,0.60
2018-02-07T11:39:27.304Z,0.60
2018-02-07T11:41:54.950Z,0.60
2018-02-07T11:44:23.321Z,0.50
2018-02-07T11:46:50.991Z,0.50
2018-02-07T11:49:19.336Z,0.50
2018-02-07T11:51:47.707Z,0.60
2018-02-07T11:54:15.346Z,0.60
2018-02-07T11:56:42.964Z,0.70
2018-02-07T11:59:11.328Z,0.70
2018-02-07T12:01:38.978Z,0.70
2018-02-07T12:04:06.620Z,0.60
2018-02-07T12:06:34.248Z,0.60
2018-02-07T12:09:01.903Z,0.70
2018-02-07T12:11:30.280Z,0.70
2018-02-07T12:13:57.969Z,0.70
2018-02-07T12:16:25.583Z,0.80
2018-02-07T12:18:54.001Z,0.90
2018-02-07T12:21:21.614Z,0.90
2018-02-07T12:23:49.548Z,0.90
2018-02-07T12:26:17.171Z,0.90
2018-02-07T12:28:44.766Z,0.90
2018-02-07T12:31:13.160Z,0.90
2018-02-07T12:33:40.780Z,0.90
2018-02-07T12:36:08.381Z,0.90
2018-02-07T12:38:35.990Z,1.00
2018-02-07T12:41:03.645Z,1.00
2018-02-07T12:43:31.250Z,1.00
2018-02-07T12:45:58.874Z,1.00
2018-02-07T12:48:26.511Z,1.00
2018-02-07T12:50:54.963Z,1.10
2018-02-07T12:53:22.553Z,1.00
2018-02-07T12:55:50.995Z,1.00
2018-02-07T12:58:18.633Z,1.00
2018-02-07T13:00:46.269Z,0.90
2018-02-07T13:03:13.933Z,1.00
2018-02-07T13:05:41.547Z,1.00
2018-02-07T13:08:09.169Z,0.90
2018-02-07T13:10:36.771Z,1.00
2018-02-07T13:13:04.396Z,1.00
2018-02-07T13:15:31.996Z,1.10
2018-02-07T13:17:59.624Z,1.10
2018-02-07T13:20:27.243Z,1.10
2018-02-07T13:22:55.652Z,1.10
2018-02-07T13:25:23.268Z,1.10
2018-02-07T13:27:50.955Z,0.90
2018-02-07T13:30:19.357Z,0.70
2018-02-07T13:32:46.994Z,0.70
2018-02-07T13:35:15.477Z,0.50
2018-02-07T13:37:43.072Z,0.50
2018-02-07T13:40:10.859Z,0.60
2018-02-07T13:42:38.507Z,0.60
2018-02-07T13:45:06.143Z,0.70
2018-02-07T13:47:33.776Z,0.80
2018-02-07T13:50:02.179Z,0.90
2018-02-07T13:52:29.805Z,0.90
2018-02-07T13:54:58.226Z,0.80
2018-02-07T13:57:25.889Z,0.80
2018-02-07T13:59:53.530Z,0.70
2018-02-07T14:02:21.123Z,0.70
2018-02-07T14:04:48.774Z,0.70
2018-02-07T14:07:16.504Z,0.80
2018-02-07T14:09:44.949Z,0.50
2018-02-07T14:12:12.595Z,0.50
2018-02-07T14:14:40.254Z,0.50
2018-02-07T14:17:07.903Z,0.50
2018-02-07T14:19:35.533Z,0.50
2018-02-07T14:22:03.172Z,0.60
2018-02-07T14:24:31.547Z,0.60
2018-02-07T14:27:00.078Z,0.60
2018-02-07T14:29:27.685Z,0.60
2018-02-07T14:31:55.324Z,0.60
2018-02-07T14:34:22.930Z,0.60
2018-02-07T14:36:51.333Z,0.60
2018-02-07T14:39:22.175Z,0.60
2018-02-07T14:41:49.849Z,0.60
2018-02-07T14:44:18.257Z,0.70
2018-02-07T14:46:46.011Z,0.70
2018-02-07T14:49:13.625Z,0.70
2018-02-07T14:51:41.262Z,0.70
2018-02-07T14:54:09.679Z,0.60
2018-02-07T14:56:37.302Z,0.60
2018-02-07T14:59:05.689Z,0.50
2018-02-07T15:01:34.159Z,0.40
2018-02-07T15:04:02.615Z,0.30
2018-02-07T15:06:30.295Z,0.30
2018-02-07T15:08:58.717Z,0.20
2018-02-07T15:11:26.364Z,0.20
2018-02-07T15:13:54.039Z,0.20
2018-02-07T15:16:21.669Z,0.20
2018-02-07T15:18:50.258Z,0.20
2018-02-07T15:21:18.693Z,0.10
2018-02-07T15:23:46.333Z,0.10
2018-02-07T15:26:14.026Z,0.00
2018-02-07T15:28:41.685Z,0.00
2018-02-07T15:31:09.507Z,0.00
2018-02-07T15:33:37.178Z,0.00
2018-02-07T15:36:04.804Z,0.10
2018-02-07T15:38:33.222Z,0.10
2018-02-07T15:41:00.870Z,0.10
2018-02-07T15:43:28.491Z,0.10
2018-02-07T15:45:56.904Z,0.10
2018-02-07T15:48:24.513Z,0.10
2018-02-07T15:50:52.156Z,0.10
2018-02-07T15:53:19.820Z,0.10
2018-02-07T15:55:47.470Z,0.10
2018-02-07T15:58:15.335Z,0.10
2018-02-07T16:00:42.997Z,0.00
2018-02-07T16:03:10.624Z,-0.10
2018-02-07T16:05:38.304Z,-0.10
2018-02-07T16:08:06.477Z,-0.10
2018-02-07T16:10:34.104Z,0.00
2018-02-07T16:13:01.779Z,0.00
2018-02-07T16:15:29.545Z,0.10
2018-02-07T16:17:57.147Z,0.10
2018-02-07T16:20:25.746Z,0.10
2018-02-07T16:22:54.181Z,0.10
2018-02-07T16:25:22.604Z,0.10
2018-02-07T16:27:50.973Z,0.10
2018-02-07T16:30:19.363Z,0.00
2018-02-07T16:32:46.974Z,0.00
2018-02-07T16:35:14.588Z,-0.10
2018-02-07T16:37:43.042Z,-0.20
2018-02-07T16:40:10.720Z,-0.20
2018-02-07T16:42:39.146Z,-0.20
2018-02-07T16:45:06.760Z,-0.30
2018-02-07T16:47:35.182Z,-0.20
2018-02-07T16:50:02.798Z,-0.20
2018-02-07T16:52:31.234Z,-0.20
2018-02-07T16:54:58.910Z,-0.20
2018-02-07T16:57:26.553Z,-0.20
2018-02-07T16:59:54.176Z,-0.30
2018-02-07T17:02:21.841Z,-0.40
2018-02-07T17:04:49.457Z,-0.40
2018-02-07T17:07:17.138Z,-0.40
2018-02-07T17:09:45.602Z,-0.40
2018-02-07T17:12:13.279Z,-0.40
2018-02-07T17:14:41.697Z,-0.40
2018-02-07T17:17:09.782Z,-0.40
2018-02-07T17:19:37.452Z,-0.40
2018-02-07T17:22:05.206Z,-0.40
2018-02-07T17:24:32.901Z,-0.40
2018-02-07T17:27:00.561Z,-0.40
2018-02-07T17:29:28.268Z,-0.30
2018-02-07T17:31:55.965Z,-0.40
2018-02-07T17:34:23.646Z,-0.40
2018-02-07T17:36:51.757Z,-0.40
2018-02-07T17:39:19.571Z,-0.30
2018-02-07T17:41:47.260Z,-0.20
2018-02-07T17:44:14.937Z,-0.20
2018-02-07T17:46:43.440Z,-0.20
2018-02-07T17:49:11.182Z,-0.30
2018-02-07T17:51:39.756Z,-0.30
2018-02-07T17:54:08.290Z,-0.40
2018-02-07T17:56:35.959Z,-0.40
2018-02-07T17:59:04.734Z,-0.40
2018-02-07T18:01:32.374Z,-0.40
2018-02-07T18:04:00.074Z,-0.40
2018-02-07T18:06:27.753Z,-0.40
2018-02-07T18:08:55.395Z,-0.40
2018-02-07T18:11:23.154Z,-0.40
2018-02-07T18:13:50.873Z,-0.40
2018-02-07T18:16:20.116Z,-0.40
2018-02-07T18:18:48.517Z,-0.40
2018-02-07T18:21:16.255Z,-0.40
2018-02-07T18:23:43.901Z,-0.40
2018-02-07T18:26:11.601Z,-0.40
2018-02-07T18:28:39.264Z,-0.40
2018-02-07T18:31:06.888Z,-0.40
2018-02-07T18:33:34.525Z,-0.30
2018-02-07T18:36:02.197Z,-0.30
2018-02-07T18:38:29.928Z,-0.30
2018-02-07T18:40:58.418Z,-0.30
2018-02-07T18:43:26.868Z,-0.20
2018-02-07T18:45:55.086Z,-0.30
2018-02-07T18:48:22.914Z,-0.30
2018-02-07T18:50:50.569Z,-0.30
2018-02-07T18:53:18.220Z,-0.30
2018-02-07T18:55:45.955Z,-0.30
2018-02-07T18:58:13.696Z,-0.40
2018-02-07T19:00:42.475Z,-0.30
2018-02-07T19:03:10.890Z,-0.40
2018-02-07T19:05:38.671Z,-0.40
2018-02-07T19:08:06.353Z,-0.40
2018-02-07T19:10:34.810Z,-0.40
2018-02-07T19:13:02.450Z,-0.40
2018-02-07T19:15:30.131Z,-0.30
2018-02-07T19:17:57.787Z,-0.30
2018-02-07T19:20:26.327Z,-0.40
2018-02-07T19:22:54.063Z,-0.30
2018-02-07T19:25:22.142Z,-0.30
2018-02-07T19:27:49.804Z,-0.30
2018-02-07T19:30:17.487Z,-0.20
2018-02-07T19:32:46.005Z,-0.30
2018-02-07T19:35:14.011Z,-0.30
2018-02-07T19:37:41.921Z,-0.30
2018-02-07T19:40:09.631Z,-0.20
2018-02-07T19:42:37.322Z,-0.30
2018-02-07T19:45:05.945Z,-0.30
2018-02-07T19:47:33.727Z,-0.40
2018-02-07T19:50:01.504Z,-0.40
2018-02-07T19:52:29.189Z,-0.50
2018-02-07T19:54:57.136Z,-0.40
2018-02-07T19:57:24.913Z,-0.50
2018-02-07T19:59:52.771Z,-0.50
2018-02-07T20:02:20.581Z,-0.50
2018-02-07T20:04:48.425Z,-0.60
2018-02-07T20:07:16.265Z,-0.60
2018-02-07T20:09:44.193Z,-0.60
2018-02-07T20:12:12.507Z,-0.60
2018-02-07T20:14:42.187Z,-0.50
2018-02-07T20:17:10.263Z,-0.60
2018-02-07T20:19:38.108Z,-0.50
2018-02-07T20:22:05.885Z,-0.50
2018-02-07T20:24:33.629Z,-0.40
2018-02-07T20:27:01.414Z,-0.50
2018-02-07T20:29:29.285Z,-0.60
2018-02-07T20:31:57.480Z,-0.60
2018-02-07T20:34:26.674Z,-0.60
2018-02-07T20:36:54.429Z,-0.60
2018-02-07T20:39:22.184Z,-0.60
2018-02-07T20:41:50.060Z,-0.60
2018-02-07T20:44:18.246Z,-0.60
2018-02-07T20:46:46.301Z,-0.60
2018-02-07T20:49:14.123Z,-0.60
2018-02-07T20:51:42.068Z,-0.60
2018-02-07T20:54:10.112Z,-0.60
2018-02-07T20:56:38.217Z,-0.70
2018-02-07T20:59:06.160Z,-0.70
2018-02-07T21:01:33.943Z,-0.70
2018-02-07T21:04:02.491Z,-0.70
2018-02-07T21:06:31.168Z,-0.70
2018-02-07T21:08:59.183Z,-0.70
2018-02-07T21:11:27.697Z,-0.80
2018-02-07T21:13:56.459Z,-0.80
2018-02-07T21:16:25.166Z,-0.70
2018-02-07T21:18:53.088Z,-0.70
2018-02-07T21:21:23.231Z,-0.70
2018-02-07T21:23:51.128Z,-0.60
2018-02-07T21:26:18.943Z,-0.60
2018-02-07T21:28:46.907Z,-0.60
2018-02-07T21:31:14.962Z,-0.60
2018-02-07T21:33:42.894Z,-0.60
2018-02-07T21:36:10.727Z,-0.60
2018-02-07T21:38:39.260Z,-0.50
2018-02-07T21:41:06.956Z,-0.60
2018-02-07T21:43:34.995Z,-0.60
2018-02-07T21:46:02.880Z,-0.60
2018-02-07T21:48:31.041Z,-0.70
2018-02-07T21:50:59.003Z,-0.60
2018-02-07T21:53:26.696Z,-0.70
2018-02-07T21:55:54.525Z,-0.70
2018-02-07T21:58:22.182Z,-0.70
2018-02-07T22:00:50.279Z,-0.70
2018-02-07T22:03:19.101Z,-0.70
2018-02-07T22:05:46.736Z,-0.70
2018-02-07T22:08:14.456Z,-0.60
2018-02-07T22:10:42.347Z,-0.60
2018-02-07T22:13:10.524Z,-0.60
2018-02-07T22:15:38.648Z,-0.60
2018-02-07T22:18:07.760Z,-0.60
2018-02-07T22:20:35.448Z,-0.60
2018-02-07T22:23:03.074Z,-0.50
2018-02-07T22:25:30.984Z,-0.50
2018-02-07T22:27:58.663Z,-0.50
2018-02-07T22:30:26.457Z,-0.60
2018-02-07T22:32:54.942Z,-0.60
2018-02-07T22:35:23.455Z,-0.60
2018-02-07T22:37:51.086Z,-0.60
2018-02-07T22:40:18.745Z,-0.60
2018-02-07T22:42:47.245Z,-0.70
2018-02-07T22:45:14.974Z,-0.70
2018-02-07T22:47:42.664Z,-0.70
2018-02-07T22:50:10.625Z,-0.70
2018-02-07T22:52:39.217Z,-0.70
2018-02-07T22:55:07.086Z,-0.70
2018-02-07T22:57:34.762Z,-0.60
2018-02-07T23:00:02.395Z,-0.70
2018-02-07T23:02:30.803Z,-0.60
2018-02-07T23:04:58.446Z,-0.70
2018-02-07T23:07:26.849Z,-0.60
2018-02-07T23:09:54.463Z,-0.60
2018-02-07T23:12:23.802Z,-0.80
2018-02-07T23:14:51.448Z,-0.80
2018-02-07T23:17:19.288Z,-0.80
2018-02-07T23:19:47.688Z,-0.80
2018-02-07T23:22:15.449Z,-0.80
2018-02-07T23:24:43.405Z,-0.80
2018-02-07T23:27:11.873Z,-0.70
2018-02-07T23:29:40.295Z,-0.60
2018-02-07T23:32:07.917Z,-0.70
2018-02-07T23:34:35.528Z,-0.60
2018-02-07T23:37:03.248Z,-0.60
2018-02-07T23:39:31.662Z,-0.60
2018-02-07T23:41:59.324Z,-0.60
2018-02-07T23:44:26.944Z,-0.60
2018-02-07T23:46:54.997Z,-0.60
2018-02-07T23:49:22.718Z,-0.60
2018-02-07T23:51:50.419Z,-0.60
2018-02-07T23:54:18.106Z,-0.70
2018-02-07T23:56:46.492Z,-0.60
2018-02-07T23:59:15.797Z,-0.70
